sensor_id;sensor_type;location;lat;lon;timestamp;pressure;altitude;pressure_sealevel;temperature;humidity
72438;BME280;60444;43.534;-5.674;2023-03-15T00:01:26;102220.03;;;13.18;100.00
72438;BME280;60444;43.534;-5.674;2023-03-15T00:03:51;102202.31;;;13.08;100.00
72438;BME280;60444;43.534;-5.674;2023-03-15T00:06:19;102217.28;;;13.19;100.00
72438;BME280;60444;43.534;-5.674;2023-03-15T00:08:45;102211.88;;;13.18;100.00
72438;BME280;60444;43.534;-5.674;2023-03-15T00:11:13;102211.94;;;13.16;100.00
72438;BME280;60444;43.534;-5.674;2023-03-15T00:13:39;102216.50;;;13.16;100.00
72438;BME280;60444;43.534;-5.674;2023-03-15T00:16:05;102223.75;;;13.15;100.00
72438;BME280;60444;43.534;-5.674;2023-03-15T00:18:30;102203.34;;;13.04;100.00
72438;BME280;60444;43.534;-5.674;2023-03-15T00:20:57;102223.63;;;13.18;100.00
72438;BME280;60444;43.534;-5.674;2023-03-15T00:23:23;102214.84;;;13.12;100.00
72438;BME280;60444;43.534;-5.674;2023-03-15T00:25:50;102196.16;;;13.03;100.00
72438;BME280;60444;43.534;-5.674;2023-03-15T00:28:16;102215.75;;;13.11;100.00
72438;BME280;60444;43.534;-5.674;2023-03-15T00:30:42;102188.91;;;13.02;100.00
72438;BME280;60444;43.534;-5.674;2023-03-15T00:33:10;102203.19;;;13.08;100.00
72438;BME280;60444;43.534;-5.674;2023-03-15T00:35:42;102205.84;;;13.10;100.00
72438;BME280;60444;43.534;-5.674;2023-03-15T00:38:08;102207.59;;;13.12;100.00
72438;BME280;60444;43.534;-5.674;2023-03-15T00:40:35;102211.28;;;13.10;100.00
72438;BME280;60444;43.534;-5.674;2023-03-15T00:43:01;102202.44;;;13.05;100.00
72438;BME280;60444;43.534;-5.674;2023-03-15T00:45:27;102192.41;;;13.05;100.00
72438;BME280;60444;43.534;-5.674;2023-03-15T00:47:53;102195.09;;;13.07;100.00
72438;BME280;60444;43.534;-5.674;2023-03-15T00:50:20;102188.19;;;12.97;100.00
72438;BME280;60444;43.534;-5.674;2023-03-15T00:52:49;102183.16;;;12.86;100.00
72438;BME280;60444;43.534;-5.674;2023-03-15T00:55:17;102191.75;;;12.99;100.00
72438;BME280;60444;43.534;-5.674;2023-03-15T00:57:44;102192.00;;;12.91;100.00
72438;BME280;60444;43.534;-5.674;2023-03-15T01:00:13;102185.09;;;12.83;100.00
72438;BME280;60444;43.534;-5.674;2023-03-15T01:02:39;102172.63;;;12.77;100.00
72438;BME280;60444;43.534;-5.674;2023-03-15T01:05:07;102175.34;;;12.77;100.00
72438;BME280;60444;43.534;-5.674;2023-03-15T01:07:34;102182.31;;;12.84;100.00
72438;BME280;60444;43.534;-5.674;2023-03-15T01:10:04;102172.69;;;12.76;100.00
72438;BME280;60444;43.534;-5.674;2023-03-15T01:12:32;102182.50;;;12.80;100.00
72438;BME280;60444;43.534;-5.674;2023-03-15T01:14:59;102189.69;;;12.81;100.00
72438;BME280;60444;43.534;-5.674;2023-03-15T01:17:25;102174.78;;;12.68;100.00
72438;BME280;60444;43.534;-5.674;2023-03-15T01:19:53;102161.31;;;12.65;100.00
72438;BME280;60444;43.534;-5.674;2023-03-15T01:22:19;102165.72;;;12.69;100.00
72438;BME280;60444;43.534;-5.674;2023-03-15T01:24:44;102175.69;;;12.68;100.00
72438;BME280;60444;43.534;-5.674;2023-03-15T01:27:10;102174.13;;;12.61;100.00
72438;BME280;60444;43.534;-5.674;2023-03-15T01:29:36;102145.56;;;12.49;100.00
72438;BME280;60444;43.534;-5.674;2023-03-15T01:32:01;102168.50;;;12.66;100.00
72438;BME280;60444;43.534;-5.674;2023-03-15T01:34:27;102181.22;;;12.65;100.00
72438;BME280;60444;43.534;-5.674;2023-03-15T01:36:52;102170.84;;;12.51;100.00
72438;BME280;60444;43.534;-5.674;2023-03-15T01:39:18;102173.50;;;12.53;100.00
72438;BME280;60444;43.534;-5.674;2023-03-15T01:41:43;102176.22;;;12.53;100.00
72438;BME280;60444;43.534;-5.674;2023-03-15T01:44:17;102176.53;;;12.44;100.00
72438;BME280;60444;43.534;-5.674;2023-03-15T01:46:43;102159.47;;;12.40;100.00
72438;BME280;60444;43.534;-5.674;2023-03-15T01:56:39;102177.88;;;12.32;100.00
72438;BME280;60444;43.534;-5.674;2023-03-15T01:59:12;102168.03;;;12.28;100.00
72438;BME280;60444;43.534;-5.674;2023-03-15T02:01:41;102164.03;;;12.14;100.00
72438;BME280;60444;43.534;-5.674;2023-03-15T02:04:11;102179.31;;;12.16;100.00
72438;BME280;60444;43.534;-5.674;2023-03-15T02:06:37;102172.75;;;12.23;100.00
72438;BME280;60444;43.534;-5.674;2023-03-15T02:09:08;102171.97;;;12.20;100.00
72438;BME280;60444;43.534;-5.674;2023-03-15T02:11:39;102158.97;;;12.03;100.00
72438;BME280;60444;43.534;-5.674;2023-03-15T02:14:06;102174.81;;;12.15;100.00
72438;BME280;60444;43.534;-5.674;2023-03-15T02:16:32;102168.88;;;12.04;100.00
72438;BME280;60444;43.534;-5.674;2023-03-15T02:18:58;102143.06;;;11.93;100.00
72438;BME280;60444;43.534;-5.674;2023-03-15T02:22:00;102175.25;;;12.03;100.00
72438;BME280;60444;43.534;-5.674;2023-03-15T02:27:50;102167.25;;;11.99;100.00
72438;BME280;60444;43.534;-5.674;2023-03-15T02:30:19;102155.00;;;11.87;100.00
72438;BME280;60444;43.534;-5.674;2023-03-15T02:32:45;102156.69;;;11.90;100.00
72438;BME280;60444;43.534;-5.674;2023-03-15T02:35:11;102159.47;;;11.88;100.00
72438;BME280;60444;43.534;-5.674;2023-03-15T02:37:36;102164.09;;;11.85;100.00
72438;BME280;60444;43.534;-5.674;2023-03-15T02:40:05;102169.69;;;11.80;100.00
72438;BME280;60444;43.534;-5.674;2023-03-15T02:42:36;102152.78;;;11.72;100.00
72438;BME280;60444;43.534;-5.674;2023-03-15T02:45:02;102150.72;;;11.80;100.00
72438;BME280;60444;43.534;-5.674;2023-03-15T02:47:31;102149.66;;;11.84;100.00
72438;BME280;60444;43.534;-5.674;2023-03-15T02:49:57;102153.44;;;11.80;100.00
72438;BME280;60444;43.534;-5.674;2023-03-15T02:52:23;102151.63;;;11.79;100.00
72438;BME280;60444;43.534;-5.674;2023-03-15T02:54:49;102156.97;;;11.82;100.00
72438;BME280;60444;43.534;-5.674;2023-03-15T02:57:16;102157.72;;;11.87;100.00
72438;BME280;60444;43.534;-5.674;2023-03-15T02:59:42;102142.78;;;11.74;100.00
72438;BME280;60444;43.534;-5.674;2023-03-15T03:02:08;102157.06;;;11.79;100.00
72438;BME280;60444;43.534;-5.674;2023-03-15T03:04:36;102147.16;;;11.78;100.00
72438;BME280;60444;43.534;-5.674;2023-03-15T03:07:02;102149.03;;;11.76;100.00
72438;BME280;60444;43.534;-5.674;2023-03-15T03:09:27;102116.88;;;11.64;100.00
72438;BME280;60444;43.534;-5.674;2023-03-15T03:11:53;102119.56;;;11.66;100.00
72438;BME280;60444;43.534;-5.674;2023-03-15T03:14:18;102130.06;;;11.76;100.00
72438;BME280;60444;43.534;-5.674;2023-03-15T03:16:44;102116.63;;;11.73;100.00
72438;BME280;60444;43.534;-5.674;2023-03-15T03:19:10;102105.78;;;11.73;100.00
72438;BME280;60444;43.534;-5.674;2023-03-15T03:21:38;102115.25;;;11.86;100.00
72438;BME280;60444;43.534;-5.674;2023-03-15T03:24:07;102098.56;;;11.72;100.00
72438;BME280;60444;43.534;-5.674;2023-03-15T03:26:34;102107.41;;;11.79;100.00
72438;BME280;60444;43.534;-5.674;2023-03-15T03:29:03;102102.91;;;11.78;100.00
72438;BME280;60444;43.534;-5.674;2023-03-15T03:31:30;102097.78;;;11.69;100.00
72438;BME280;60444;43.534;-5.674;2023-03-15T03:33:58;102110.88;;;11.82;100.00
72438;BME280;60444;43.534;-5.674;2023-03-15T03:36:23;102105.34;;;11.85;100.00
72438;BME280;60444;43.534;-5.674;2023-03-15T03:38:49;102096.56;;;11.77;100.00
72438;BME280;60444;43.534;-5.674;2023-03-15T03:41:16;102101.03;;;11.80;100.00
72438;BME280;60444;43.534;-5.674;2023-03-15T03:43:41;102090.59;;;11.68;100.00
72438;BME280;60444;43.534;-5.674;2023-03-15T03:46:07;102105.78;;;11.73;100.00
72438;BME280;60444;43.534;-5.674;2023-03-15T03:48:32;102074.41;;;11.65;100.00
72438;BME280;60444;43.534;-5.674;2023-03-15T03:50:58;102084.59;;;11.57;100.00
72438;BME280;60444;43.534;-5.674;2023-03-15T03:53:23;102087.38;;;11.53;100.00
72438;BME280;60444;43.534;-5.674;2023-03-15T03:55:49;102071.34;;;11.47;100.00
72438;BME280;60444;43.534;-5.674;2023-03-15T03:58:15;102096.47;;;11.52;100.00
72438;BME280;60444;43.534;-5.674;2023-03-15T04:00:41;102080.31;;;11.49;100.00
72438;BME280;60444;43.534;-5.674;2023-03-15T04:03:07;102079.25;;;11.55;100.00
72438;BME280;60444;43.534;-5.674;2023-03-15T04:05:34;102076.78;;;11.47;100.00
72438;BME280;60444;43.534;-5.674;2023-03-15T04:07:59;102075.19;;;11.40;100.00
72438;BME280;60444;43.534;-5.674;2023-03-15T04:10:26;102076.97;;;11.41;100.00
72438;BME280;60444;43.534;-5.674;2023-03-15T04:12:56;102091.25;;;11.46;100.00
72438;BME280;60444;43.534;-5.674;2023-03-15T04:15:23;102076.78;;;11.47;100.00
72438;BME280;60444;43.534;-5.674;2023-03-15T04:17:50;102079.00;;;11.35;100.00
72438;BME280;60444;43.534;-5.674;2023-03-15T04:20:21;102064.75;;;11.28;100.00
72438;BME280;60444;43.534;-5.674;2023-03-15T04:22:47;102076.47;;;11.29;100.00
72438;BME280;60444;43.534;-5.674;2023-03-15T04:25:19;102079.72;;;11.40;100.00
72438;BME280;60444;43.534;-5.674;2023-03-15T04:27:45;102079.72;;;11.40;100.00
72438;BME280;60444;43.534;-5.674;2023-03-15T04:30:11;102085.59;;;11.26;100.00
72438;BME280;60444;43.534;-5.674;2023-03-15T04:32:37;102077.66;;;11.20;100.00
72438;BME280;60444;43.534;-5.674;2023-03-15T04:35:03;102090.25;;;11.21;100.00
72438;BME280;60444;43.534;-5.674;2023-03-15T04:37:30;102086.28;;;11.33;100.00
72438;BME280;60444;43.534;-5.674;2023-03-15T04:39:59;102088.53;;;11.19;100.00
72438;BME280;60444;43.534;-5.674;2023-03-15T04:42:25;102089.28;;;11.24;100.00
72438;BME280;60444;43.534;-5.674;2023-03-15T04:44:51;102071.06;;;11.00;100.00
72438;BME280;60444;43.534;-5.674;2023-03-15T04:47:18;102083.19;;;11.16;100.00
72438;BME280;60444;43.534;-5.674;2023-03-15T04:49:44;102081.44;;;11.15;100.00
72438;BME280;60444;43.534;-5.674;2023-03-15T04:52:10;102082.47;;;11.11;100.00
72438;BME280;60444;43.534;-5.674;2023-03-15T04:54:35;102059.41;;;10.98;100.00
72438;BME280;60444;43.534;-5.674;2023-03-15T04:57:01;102061.75;;;11.10;100.00
72438;BME280;60444;43.534;-5.674;2023-03-15T04:59:26;102074.28;;;11.12;100.00
72438;BME280;60444;43.534;-5.674;2023-03-15T05:01:52;102074.34;;;11.11;100.00
72438;BME280;60444;43.534;-5.674;2023-03-15T05:04:17;102078.72;;;11.15;100.00
72438;BME280;60444;43.534;-5.674;2023-03-15T05:06:43;102072.69;;;11.05;100.00
72438;BME280;60444;43.534;-5.674;2023-03-15T05:09:08;102076.41;;;11.03;100.00
72438;BME280;60444;43.534;-5.674;2023-03-15T05:11:42;102068.56;;;10.94;100.00
72438;BME280;60444;43.534;-5.674;2023-03-15T05:14:07;102073.94;;;10.95;100.00
72438;BME280;60444;43.534;-5.674;2023-03-15T05:16:33;102074.56;;;11.03;100.00
72438;BME280;60444;43.534;-5.674;2023-03-15T05:18:58;102081.78;;;11.04;100.00
72438;BME280;60444;43.534;-5.674;2023-03-15T05:21:23;102067.56;;;10.96;100.00
72438;BME280;60444;43.534;-5.674;2023-03-15T05:23:49;102079.28;;;10.97;100.00
72438;BME280;60444;43.534;-5.674;2023-03-15T05:26:15;102040.00;;;10.84;100.00
72438;BME280;60444;43.534;-5.674;2023-03-15T05:28:41;102060.56;;;10.89;100.00
72438;BME280;60444;43.534;-5.674;2023-03-15T05:31:09;102040.00;;;10.84;100.00
72438;BME280;60444;43.534;-5.674;2023-03-15T05:33:34;102063.22;;;10.91;100.00
72438;BME280;60444;43.534;-5.674;2023-03-15T05:36:00;102037.22;;;10.85;100.00
72438;BME280;60444;43.534;-5.674;2023-03-15T05:38:25;102065.88;;;10.94;100.00
72438;BME280;60444;43.534;-5.674;2023-03-15T05:40:52;102042.91;;;10.78;100.00
72438;BME280;60444;43.534;-5.674;2023-03-15T05:43:18;102057.75;;;10.94;100.00
72438;BME280;60444;43.534;-5.674;2023-03-15T05:45:43;102061.63;;;10.84;100.00
72438;BME280;60444;43.534;-5.674;2023-03-15T05:48:11;102053.34;;;10.90;100.00
72438;BME280;60444;43.534;-5.674;2023-03-15T05:50:36;102041.97;;;10.79;100.00
72438;BME280;60444;43.534;-5.674;2023-03-15T05:53:02;102054.47;;;10.83;100.00
72438;BME280;60444;43.534;-5.674;2023-03-15T05:55:27;102052.72;;;10.80;100.00
72438;BME280;60444;43.534;-5.674;2023-03-15T05:57:53;102045.22;;;10.90;100.00
72438;BME280;60444;43.534;-5.674;2023-03-15T06:00:19;102049.06;;;10.83;100.00
72438;BME280;60444;43.534;-5.674;2023-03-15T06:02:45;102048.06;;;10.85;100.00
72438;BME280;60444;43.534;-5.674;2023-03-15T06:05:11;102035.56;;;10.81;100.00
72438;BME280;60444;43.534;-5.674;2023-03-15T06:07:37;102042.00;;;10.77;100.00
72438;BME280;60444;43.534;-5.674;2023-03-15T06:10:03;102045.56;;;10.79;100.00
72438;BME280;60444;43.534;-5.674;2023-03-15T06:12:30;102060.53;;;10.91;100.00
72438;BME280;60444;43.534;-5.674;2023-03-15T06:14:55;102051.56;;;10.89;100.00
72438;BME280;60444;43.534;-5.674;2023-03-15T06:17:21;102029.22;;;10.82;100.00
72438;BME280;60444;43.534;-5.674;2023-03-15T06:19:46;102023.97;;;10.76;100.00
72438;BME280;60444;43.534;-5.674;2023-03-15T06:22:12;102036.09;;;10.94;100.00
72438;BME280;60444;43.534;-5.674;2023-03-15T06:24:37;102034.56;;;10.84;100.00
72438;BME280;60444;43.534;-5.674;2023-03-15T06:27:03;102006.81;;;10.77;100.00
72438;BME280;60444;43.534;-5.674;2023-03-15T06:29:29;102025.03;;;10.71;100.00
72438;BME280;60444;43.534;-5.674;2023-03-15T06:31:54;102024.69;;;10.83;100.00
72438;BME280;60444;43.534;-5.674;2023-03-15T06:34:20;102013.03;;;10.81;100.00
72438;BME280;60444;43.534;-5.674;2023-03-15T06:36:46;102019.28;;;10.83;100.00
72438;BME280;60444;43.534;-5.674;2023-03-15T06:39:12;102024.78;;;10.80;100.00
72438;BME280;60444;43.534;-5.674;2023-03-15T06:41:38;102012.00;;;10.85;100.00
72438;BME280;60444;43.534;-5.674;2023-03-15T06:44:06;102010.09;;;10.88;100.00
72438;BME280;60444;43.534;-5.674;2023-03-15T06:46:32;102004.25;;;10.73;100.00
72438;BME280;60444;43.534;-5.674;2023-03-15T06:48:58;102015.69;;;10.82;100.00
72438;BME280;60444;43.534;-5.674;2023-03-15T06:51:23;102020.13;;;10.85;100.00
72438;BME280;60444;43.534;-5.674;2023-03-15T06:53:49;102002.53;;;10.70;100.00
72438;BME280;60444;43.534;-5.674;2023-03-15T06:56:14;102015.44;;;10.90;100.00
72438;BME280;60444;43.534;-5.674;2023-03-15T06:58:40;101992.56;;;10.72;100.00
72438;BME280;60444;43.534;-5.674;2023-03-15T07:01:05;102008.50;;;10.81;100.00
72438;BME280;60444;43.534;-5.674;2023-03-15T07:03:31;102024.09;;;10.73;100.00
72438;BME280;60444;43.534;-5.674;2023-03-15T07:05:57;102013.41;;;10.69;100.00
72438;BME280;60444;43.534;-5.674;2023-03-15T07:08:23;101999.16;;;10.62;100.00
72438;BME280;60444;43.534;-5.674;2023-03-15T07:10:49;101998.25;;;10.62;100.00
72438;BME280;60444;43.534;-5.674;2023-03-15T07:13:17;102017.72;;;10.74;100.00
72438;BME280;60444;43.534;-5.674;2023-03-15T07:15:43;101999.16;;;10.62;100.00
72438;BME280;60444;43.534;-5.674;2023-03-15T07:18:09;102019.50;;;10.75;100.00
72438;BME280;60444;43.534;-5.674;2023-03-15T07:20:35;102019.41;;;10.78;100.00
72438;BME280;60444;43.534;-5.674;2023-03-15T07:23:00;102020.34;;;10.77;100.00
72438;BME280;60444;43.534;-5.674;2023-03-15T07:25:26;101998.03;;;10.69;100.00
72438;BME280;60444;43.534;-5.674;2023-03-15T07:27:52;102027.97;;;10.92;100.00
72438;BME280;60444;43.534;-5.674;2023-03-15T07:30:19;102019.78;;;10.95;100.00
72438;BME280;60444;43.534;-5.674;2023-03-15T07:32:45;102009.94;;;10.93;100.00
72438;BME280;60444;43.534;-5.674;2023-03-15T07:35:11;102017.16;;;10.92;100.00
72438;BME280;60444;43.534;-5.674;2023-03-15T07:37:37;102009.81;;;10.97;100.00
72438;BME280;60444;43.534;-5.674;2023-03-15T07:40:03;102014.03;;;11.06;100.00
72438;BME280;60444;43.534;-5.674;2023-03-15T07:42:37;101996.22;;;10.99;100.00
72438;BME280;60444;43.534;-5.674;2023-03-15T07:45:05;102003.25;;;11.04;100.00
72438;BME280;60444;43.534;-5.674;2023-03-15T07:47:31;101997.91;;;11.03;100.00
72438;BME280;60444;43.534;-5.674;2023-03-15T07:49:57;102003.94;;;11.11;100.00
72438;BME280;60444;43.534;-5.674;2023-03-15T07:52:23;101994.09;;;11.08;100.00
72438;BME280;60444;43.534;-5.674;2023-03-15T07:54:48;102000.94;;;11.20;100.00
72438;BME280;60444;43.534;-5.674;2023-03-15T07:57:14;101997.19;;;11.24;100.00
72438;BME280;60444;43.534;-5.674;2023-03-15T07:59:39;101990.88;;;11.23;100.00
72438;BME280;60444;43.534;-5.674;2023-03-15T08:02:05;102002.38;;;11.31;100.00
72438;BME280;60444;43.534;-5.674;2023-03-15T08:04:31;101996.78;;;11.36;100.00
72438;BME280;60444;43.534;-5.674;2023-03-15T08:06:57;102002.84;;;11.44;100.00
72438;BME280;60444;43.534;-5.674;2023-03-15T08:09:22;101995.56;;;11.46;100.00
72438;BME280;60444;43.534;-5.674;2023-03-15T08:11:49;102015.19;;;11.52;100.00
72438;BME280;60444;43.534;-5.674;2023-03-15T08:14:14;101983.88;;;11.44;100.00
72438;BME280;60444;43.534;-5.674;2023-03-15T08:16:40;101980.28;;;11.43;100.00
72438;BME280;60444;43.534;-5.674;2023-03-15T08:19:05;102003.13;;;11.61;100.00
72438;BME280;60444;43.534;-5.674;2023-03-15T08:21:31;101997.63;;;11.64;100.00
72438;BME280;60444;43.534;-5.674;2023-03-15T08:24:00;102003.63;;;11.74;100.00
72438;BME280;60444;43.534;-5.674;2023-03-15T08:26:25;101994.19;;;11.85;100.00
72438;BME280;60444;43.534;-5.674;2023-03-15T08:28:51;101987.06;;;11.83;100.00
72438;BME280;60444;43.534;-5.674;2023-03-15T08:31:17;101974.19;;;11.89;100.00
72438;BME280;60444;43.534;-5.674;2023-03-15T08:33:42;101996.91;;;12.10;100.00
72438;BME280;60444;43.534;-5.674;2023-03-15T08:36:08;101984.47;;;12.04;100.00
72438;BME280;60444;43.534;-5.674;2023-03-15T08:38:34;101970.69;;;12.10;100.00
72438;BME280;60444;43.534;-5.674;2023-03-15T08:41:01;101973.88;;;12.21;100.00
72438;BME280;60444;43.534;-5.674;2023-03-15T08:43:27;101984.53;;;12.27;100.00
72438;BME280;60444;43.534;-5.674;2023-03-15T08:45:53;101966.19;;;12.34;100.00
72438;BME280;60444;43.534;-5.674;2023-03-15T08:48:18;101952.06;;;12.24;100.00
72438;BME280;60444;43.534;-5.674;2023-03-15T08:50:45;101962.41;;;12.38;100.00
72438;BME280;60444;43.534;-5.674;2023-03-15T08:53:10;101965.63;;;12.47;100.00
72438;BME280;60444;43.534;-5.674;2023-03-15T08:55:36;101973.78;;;12.47;100.00
72438;BME280;60444;43.534;-5.674;2023-03-15T08:58:03;101979.81;;;12.56;100.00
72438;BME280;60444;43.534;-5.674;2023-03-15T09:00:29;101964.78;;;12.47;100.00
72438;BME280;60444;43.534;-5.674;2023-03-15T09:02:54;101985.00;;;12.62;100.00
72438;BME280;60444;43.534;-5.674;2023-03-15T09:05:21;101989.69;;;12.57;100.00
72438;BME280;60444;43.534;-5.674;2023-03-15T09:07:48;101978.69;;;12.61;100.00
72438;BME280;60444;43.534;-5.674;2023-03-15T09:10:15;101978.69;;;12.61;100.00
72438;BME280;60444;43.534;-5.674;2023-03-15T09:12:51;101958.03;;;12.57;100.00
72438;BME280;60444;43.534;-5.674;2023-03-15T09:15:18;101966.31;;;12.54;100.00
72438;BME280;60444;43.534;-5.674;2023-03-15T09:17:43;101981.88;;;12.72;100.00
72438;BME280;60444;43.534;-5.674;2023-03-15T09:20:11;101975.63;;;12.70;100.00
72438;BME280;60444;43.534;-5.674;2023-03-15T09:22:41;101973.66;;;12.74;100.00
72438;BME280;60444;43.534;-5.674;2023-03-15T09:25:07;101958.19;;;12.76;100.00
72438;BME280;60444;43.534;-5.674;2023-03-15T09:27:34;101969.41;;;12.90;100.00
72438;BME280;60444;43.534;-5.674;2023-03-15T09:29:59;101958.41;;;12.93;100.00
72438;BME280;60444;43.534;-5.674;2023-03-15T09:32:25;101959.91;;;13.00;100.00
72438;BME280;60444;43.534;-5.674;2023-03-15T09:34:51;101957.00;;;13.06;100.00
72438;BME280;60444;43.534;-5.674;2023-03-15T09:37:16;101951.38;;;13.10;100.00
72438;BME280;60444;43.534;-5.674;2023-03-15T09:39:42;101939.25;;;13.19;100.00
72438;BME280;60444;43.534;-5.674;2023-03-15T09:42:41;101939.75;;;13.28;100.00
72438;BME280;60444;43.534;-5.674;2023-03-15T09:48:33;101928.97;;;13.47;100.00
72438;BME280;60444;43.534;-5.674;2023-03-15T09:51:15;101928.47;;;13.59;100.00
72438;BME280;60444;43.534;-5.674;2023-03-15T09:53:51;101926.25;;;13.67;100.00
72438;BME280;60444;43.534;-5.674;2023-03-15T09:56:24;101911.75;;;13.68;100.00
72438;BME280;60444;43.534;-5.674;2023-03-15T09:58:57;101923.56;;;13.87;100.00
72438;BME280;60444;43.534;-5.674;2023-03-15T10:01:50;101908.72;;;13.94;100.00
72438;BME280;60444;43.534;-5.674;2023-03-15T10:04:26;101904.41;;;14.09;100.00
72438;BME280;60444;43.534;-5.674;2023-03-15T10:06:56;101887.63;;;13.99;100.00
72438;BME280;60444;43.534;-5.674;2023-03-15T10:09:27;101892.38;;;14.14;100.00
72438;BME280;60444;43.534;-5.674;2023-03-15T10:12:15;101897.53;;;14.20;100.00
72438;BME280;60444;43.534;-5.674;2023-03-15T10:20:32;101872.34;;;14.35;100.00
72438;BME280;60444;43.534;-5.674;2023-03-15T10:23:14;101875.75;;;14.40;100.00
72438;BME280;60444;43.534;-5.674;2023-03-15T10:25:44;101855.19;;;14.33;100.00
72438;BME280;60444;43.534;-5.674;2023-03-15T10:28:27;101871.78;;;14.47;100.00
72438;BME280;60444;43.534;-5.674;2023-03-15T10:30:55;101867.91;;;14.51;100.00
72438;BME280;60444;43.534;-5.674;2023-03-15T10:35:54;101860.28;;;14.60;100.00
72438;BME280;60444;43.534;-5.674;2023-03-15T10:38:22;101857.47;;;14.61;100.00
72438;BME280;60444;43.534;-5.674;2023-03-15T10:48:35;101838.31;;;14.63;100.00
72438;BME280;60444;43.534;-5.674;2023-03-15T10:51:19;101830.16;;;14.63;100.00
72438;BME280;60444;43.534;-5.674;2023-03-15T10:56:26;101835.97;;;14.55;100.00
72438;BME280;60444;43.534;-5.674;2023-03-15T10:58:54;101830.94;;;14.47;100.00
72438;BME280;60444;43.534;-5.674;2023-03-15T11:06:49;101840.47;;;14.37;100.00
72438;BME280;60444;43.534;-5.674;2023-03-15T11:09:18;101831.00;;;14.27;100.00
72438;BME280;60444;43.534;-5.674;2023-03-15T11:11:57;101835.34;;;14.31;100.00
72438;BME280;60444;43.534;-5.674;2023-03-15T11:14:25;101814.94;;;14.21;100.00
72438;BME280;60444;43.534;-5.674;2023-03-15T11:16:57;101837.25;;;14.29;100.00
72438;BME280;60444;43.534;-5.674;2023-03-15T11:19:28;101831.91;;;14.28;100.00
72438;BME280;60444;43.534;-5.674;2023-03-15T11:21:57;101828.22;;;14.29;100.00
72438;BME280;60444;43.534;-5.674;2023-03-15T11:24:32;101829.22;;;14.26;100.00
72438;BME280;60444;43.534;-5.674;2023-03-15T11:27:00;101801.47;;;14.18;100.00
72438;BME280;60444;43.534;-5.674;2023-03-15T11:29:30;101817.31;;;14.29;100.00
72438;BME280;60444;43.534;-5.674;2023-03-15T11:31:59;101810.78;;;14.33;100.00
72438;BME280;60444;43.534;-5.674;2023-03-15T11:34:39;101811.59;;;14.35;100.00
72438;BME280;60444;43.534;-5.674;2023-03-15T11:37:13;101797.00;;;14.36;100.00
72438;BME280;60444;43.534;-5.674;2023-03-15T11:39:47;101794.09;;;14.40;100.00
72438;BME280;60444;43.534;-5.674;2023-03-15T11:42:25;101788.31;;;14.46;100.00
72438;BME280;60444;43.534;-5.674;2023-03-15T11:44:54;101798.75;;;14.55;100.00
72438;BME280;60444;43.534;-5.674;2023-03-15T11:47:55;101772.94;;;14.45;100.00
72438;BME280;60444;43.534;-5.674;2023-03-15T11:50:23;101772.56;;;14.53;100.00
72438;BME280;60444;43.534;-5.674;2023-03-15T11:52:50;101786.38;;;14.67;100.00
72438;BME280;60444;43.534;-5.674;2023-03-15T11:57:45;101779.41;;;14.79;100.00
72438;BME280;60444;43.534;-5.674;2023-03-15T12:00:19;101777.34;;;14.84;100.00
72438;BME280;60444;43.534;-5.674;2023-03-15T12:02:52;101753.22;;;14.76;100.00
72438;BME280;60444;43.534;-5.674;2023-03-15T12:05:44;101765.19;;;14.91;100.00
72438;BME280;60444;43.534;-5.674;2023-03-15T12:08:19;101754.13;;;14.94;100.00
72438;BME280;60444;43.534;-5.674;2023-03-15T12:10:46;101743.31;;;14.92;100.00
72438;BME280;60444;43.534;-5.674;2023-03-15T12:13:18;101734.41;;;14.89;100.00
72438;BME280;60444;43.534;-5.674;2023-03-15T12:15:45;101743.72;;;15.02;100.00
72438;BME280;60444;43.534;-5.674;2023-03-15T12:18:15;101739.94;;;15.04;100.00
72438;BME280;60444;43.534;-5.674;2023-03-15T12:20:49;101735.19;;;15.08;100.00
72438;BME280;60444;43.534;-5.674;2023-03-15T12:25:56;101708.56;;;15.13;100.00
72438;BME280;60444;43.534;-5.674;2023-03-15T12:28:53;101705.84;;;15.13;100.00
72438;BME280;60444;43.534;-5.674;2023-03-15T12:31:48;101714.41;;;15.22;100.00
72438;BME280;60444;43.534;-5.674;2023-03-15T12:35:13;101689.81;;;15.24;100.00
72438;BME280;60444;43.534;-5.674;2023-03-15T12:37:51;101699.59;;;15.28;100.00
72438;BME280;60444;43.534;-5.674;2023-03-15T12:53:39;101647.94;;;15.42;100.00
72438;BME280;60444;43.534;-5.674;2023-03-15T12:56:39;101654.09;;;15.45;100.00
72438;BME280;60444;43.534;-5.674;2023-03-15T12:59:18;101633.09;;;15.47;100.00
72438;BME280;60444;43.534;-5.674;2023-03-15T13:01:49;101645.50;;;15.53;100.00
72438;BME280;60444;43.534;-5.674;2023-03-15T13:04:15;101633.09;;;15.47;100.00
72438;BME280;60444;43.534;-5.674;2023-03-15T13:12:00;101609.16;;;15.52;100.00
72438;BME280;60444;43.534;-5.674;2023-03-15T13:14:35;101629.66;;;15.44;100.00
72438;BME280;60444;43.534;-5.674;2023-03-15T13:19:46;101607.03;;;15.42;100.00
72438;BME280;60444;43.534;-5.674;2023-03-15T13:22:25;101588.94;;;15.41;100.00
72438;BME280;60444;43.534;-5.674;2023-03-15T13:25:12;101602.13;;;15.48;100.00
72438;BME280;60444;43.534;-5.674;2023-03-15T13:30:32;101573.47;;;15.57;100.00
72438;BME280;60444;43.534;-5.674;2023-03-15T13:35:48;101583.38;;;15.58;100.00
72438;BME280;60444;43.534;-5.674;2023-03-15T13:38:32;101565.88;;;15.62;100.00
72438;BME280;60444;43.534;-5.674;2023-03-15T13:41:01;101567.47;;;15.66;100.00
72438;BME280;60444;43.534;-5.674;2023-03-15T13:43:36;101552.00;;;15.67;100.00
72438;BME280;60444;43.534;-5.674;2023-03-15T13:46:02;101569.91;;;15.71;100.00
72438;BME280;60444;43.534;-5.674;2023-03-15T13:48:31;101535.25;;;15.73;100.00